sensor_id;sensor_type;location;lat;lon;timestamp;P1;durP1;ratioP1;P2;durP2;ratioP2
18046;SDS011;9148;51.454;13.862;2024-02-26T00:01:23;6.77;;;5.30;;
18046;SDS011;9148;51.454;13.862;2024-02-26T00:03:49;8.27;;;6.30;;
18046;SDS011;9148;51.454;13.862;2024-02-26T00:06:15;7.50;;;5.30;;
18046;SDS011;9148;51.454;13.862;2024-02-26T00:08:41;8.53;;;5.47;;
18046;SDS011;9148;51.454;13.862;2024-02-26T00:11:06;6.93;;;5.17;;
18046;SDS011;9148;51.454;13.862;2024-02-26T00:13:32;8.77;;;5.93;;
18046;SDS011;9148;51.454;13.862;2024-02-26T00:15:58;7.77;;;6.00;;
18046;SDS011;9148;51.454;13.862;2024-02-26T00:18:23;5.90;;;4.40;;
18046;SDS011;9148;51.454;13.862;2024-02-26T00:20:49;7.27;;;5.90;;
18046;SDS011;9148;51.454;13.862;2024-02-26T00:23:15;7.67;;;4.90;;
18046;SDS011;9148;51.454;13.862;2024-02-26T00:25:41;12.07;;;6.33;;
18046;SDS011;9148;51.454;13.862;2024-02-26T00:28:08;16.17;;;7.40;;
18046;SDS011;9148;51.454;13.862;2024-02-26T00:30:35;12.57;;;7.47;;
18046;SDS011;9148;51.454;13.862;2024-02-26T00:33:01;8.67;;;6.63;;
18046;SDS011;9148;51.454;13.862;2024-02-26T00:35:26;11.10;;;7.83;;
18046;SDS011;9148;51.454;13.862;2024-02-26T00:37:52;10.77;;;6.93;;
18046;SDS011;9148;51.454;13.862;2024-02-26T00:40:18;8.77;;;6.17;;
18046;SDS011;9148;51.454;13.862;2024-02-26T00:42:44;6.53;;;5.77;;
18046;SDS011;9148;51.454;13.862;2024-02-26T00:45:11;8.27;;;6.97;;
18046;SDS011;9148;51.454;13.862;2024-02-26T00:47:37;6.97;;;4.87;;
18046;SDS011;9148;51.454;13.862;2024-02-26T00:50:06;7.43;;;5.83;;
18046;SDS011;9148;51.454;13.862;2024-02-26T00:52:33;7.13;;;6.23;;
18046;SDS011;9148;51.454;13.862;2024-02-26T00:54:59;10.00;;;6.13;;
18046;SDS011;9148;51.454;13.862;2024-02-26T00:57:26;6.80;;;5.30;;
18046;SDS011;9148;51.454;13.862;2024-02-26T00:59:51;9.50;;;5.63;;
18046;SDS011;9148;51.454;13.862;2024-02-26T01:02:17;13.67;;;5.17;;
18046;SDS011;9148;51.454;13.862;2024-02-26T01:04:43;7.90;;;4.23;;
18046;SDS011;9148;51.454;13.862;2024-02-26T01:07:08;9.33;;;5.00;;
18046;SDS011;9148;51.454;13.862;2024-02-26T01:09:34;6.30;;;4.80;;
18046;SDS011;9148;51.454;13.862;2024-02-26T01:12:00;6.93;;;4.97;;
18046;SDS011;9148;51.454;13.862;2024-02-26T01:14:27;7.70;;;4.97;;
18046;SDS011;9148;51.454;13.862;2024-02-26T01:16:53;5.83;;;4.87;;
18046;SDS011;9148;51.454;13.862;2024-02-26T01:19:19;7.33;;;4.87;;
18046;SDS011;9148;51.454;13.862;2024-02-26T01:21:44;6.60;;;5.30;;
18046;SDS011;9148;51.454;13.862;2024-02-26T01:24:10;10.50;;;6.33;;
18046;SDS011;9148;51.454;13.862;2024-02-26T01:26:35;8.07;;;5.80;;
18046;SDS011;9148;51.454;13.862;2024-02-26T01:29:01;7.50;;;6.27;;
18046;SDS011;9148;51.454;13.862;2024-02-26T01:31:27;8.87;;;6.00;;
18046;SDS011;9148;51.454;13.862;2024-02-26T01:33:52;10.77;;;6.27;;
18046;SDS011;9148;51.454;13.862;2024-02-26T01:36:18;10.50;;;6.73;;
18046;SDS011;9148;51.454;13.862;2024-02-26T01:38:44;6.13;;;5.27;;
18046;SDS011;9148;51.454;13.862;2024-02-26T01:41:09;7.37;;;5.63;;
18046;SDS011;9148;51.454;13.862;2024-02-26T01:43:35;8.43;;;6.37;;
18046;SDS011;9148;51.454;13.862;2024-02-26T01:46:01;6.80;;;5.80;;
18046;SDS011;9148;51.454;13.862;2024-02-26T01:48:27;9.70;;;5.73;;
18046;SDS011;9148;51.454;13.862;2024-02-26T01:50:53;6.80;;;5.03;;
18046;SDS011;9148;51.454;13.862;2024-02-26T01:53:19;10.80;;;7.43;;
18046;SDS011;9148;51.454;13.862;2024-02-26T01:55:45;10.03;;;6.23;;
18046;SDS011;9148;51.454;13.862;2024-02-26T01:58:10;8.13;;;5.80;;
18046;SDS011;9148;51.454;13.862;2024-02-26T02:00:37;7.47;;;6.70;;
18046;SDS011;9148;51.454;13.862;2024-02-26T02:03:03;8.50;;;6.23;;
18046;SDS011;9148;51.454;13.862;2024-02-26T02:05:30;10.50;;;6.63;;
18046;SDS011;9148;51.454;13.862;2024-02-26T02:07:56;8.57;;;5.67;;
18046;SDS011;9148;51.454;13.862;2024-02-26T02:10:23;5.83;;;5.33;;
18046;SDS011;9148;51.454;13.862;2024-02-26T02:12:51;6.90;;;5.33;;
18046;SDS011;9148;51.454;13.862;2024-02-26T02:15:17;9.00;;;7.20;;
18046;SDS011;9148;51.454;13.862;2024-02-26T02:17:43;8.43;;;6.80;;
18046;SDS011;9148;51.454;13.862;2024-02-26T02:20:18;10.93;;;6.30;;
18046;SDS011;9148;51.454;13.862;2024-02-26T02:22:46;6.80;;;5.63;;
18046;SDS011;9148;51.454;13.862;2024-02-26T02:25:12;9.63;;;7.10;;
18046;SDS011;9148;51.454;13.862;2024-02-26T02:27:39;12.23;;;7.07;;
18046;SDS011;9148;51.454;13.862;2024-02-26T02:30:06;10.33;;;6.83;;
18046;SDS011;9148;51.454;13.862;2024-02-26T02:32:32;9.60;;;5.93;;
18046;SDS011;9148;51.454;13.862;2024-02-26T02:34:58;9.60;;;6.97;;
18046;SDS011;9148;51.454;13.862;2024-02-26T02:37:24;8.30;;;6.17;;
18046;SDS011;9148;51.454;13.862;2024-02-26T02:39:50;10.40;;;6.47;;
18046;SDS011;9148;51.454;13.862;2024-02-26T02:42:16;11.07;;;8.70;;
18046;SDS011;9148;51.454;13.862;2024-02-26T02:44:42;10.03;;;6.50;;
18046;SDS011;9148;51.454;13.862;2024-02-26T02:47:09;8.37;;;6.83;;
18046;SDS011;9148;51.454;13.862;2024-02-26T02:49:35;7.93;;;7.13;;
18046;SDS011;9148;51.454;13.862;2024-02-26T02:52:01;10.83;;;7.50;;
18046;SDS011;9148;51.454;13.862;2024-02-26T02:54:26;7.27;;;6.50;;
18046;SDS011;9148;51.454;13.862;2024-02-26T02:56:52;9.30;;;7.17;;
18046;SDS011;9148;51.454;13.862;2024-02-26T02:59:18;8.47;;;7.00;;
18046;SDS011;9148;51.454;13.862;2024-02-26T03:01:43;9.00;;;6.97;;
18046;SDS011;9148;51.454;13.862;2024-02-26T03:04:09;10.50;;;7.30;;
18046;SDS011;9148;51.454;13.862;2024-02-26T03:06:35;8.93;;;6.10;;
18046;SDS011;9148;51.454;13.862;2024-02-26T03:09:00;9.57;;;6.13;;
18046;SDS011;9148;51.454;13.862;2024-02-26T03:11:26;9.17;;;6.63;;
18046;SDS011;9148;51.454;13.862;2024-02-26T03:13:51;12.60;;;6.97;;
18046;SDS011;9148;51.454;13.862;2024-02-26T03:16:17;11.13;;;7.67;;
18046;SDS011;9148;51.454;13.862;2024-02-26T03:18:43;10.23;;;7.23;;
18046;SDS011;9148;51.454;13.862;2024-02-26T03:21:09;13.40;;;7.30;;
18046;SDS011;9148;51.454;13.862;2024-02-26T03:23:34;9.90;;;6.13;;
18046;SDS011;9148;51.454;13.862;2024-02-26T03:26:02;8.23;;;6.57;;
18046;SDS011;9148;51.454;13.862;2024-02-26T03:28:29;7.70;;;6.53;;
18046;SDS011;9148;51.454;13.862;2024-02-26T03:30:55;9.10;;;6.87;;
18046;SDS011;9148;51.454;13.862;2024-02-26T03:33:21;11.67;;;7.43;;
18046;SDS011;9148;51.454;13.862;2024-02-26T03:35:47;7.97;;;5.83;;
18046;SDS011;9148;51.454;13.862;2024-02-26T03:38:13;11.10;;;7.53;;
18046;SDS011;9148;51.454;13.862;2024-02-26T03:40:38;7.43;;;6.47;;
18046;SDS011;9148;51.454;13.862;2024-02-26T03:43:04;9.63;;;6.57;;
18046;SDS011;9148;51.454;13.862;2024-02-26T03:45:32;7.77;;;6.73;;
18046;SDS011;9148;51.454;13.862;2024-02-26T03:47:58;7.90;;;5.83;;
18046;SDS011;9148;51.454;13.862;2024-02-26T03:50:23;8.67;;;6.20;;
18046;SDS011;9148;51.454;13.862;2024-02-26T03:52:49;7.20;;;5.07;;
18046;SDS011;9148;51.454;13.862;2024-02-26T03:55:15;10.03;;;6.63;;
18046;SDS011;9148;51.454;13.862;2024-02-26T03:57:45;10.50;;;6.60;;
18046;SDS011;9148;51.454;13.862;2024-02-26T04:00:11;14.33;;;8.10;;
18046;SDS011;9148;51.454;13.862;2024-02-26T04:02:38;6.60;;;5.87;;
18046;SDS011;9148;51.454;13.862;2024-02-26T04:05:04;10.13;;;7.13;;
18046;SDS011;9148;51.454;13.862;2024-02-26T04:07:30;11.20;;;8.00;;
18046;SDS011;9148;51.454;13.862;2024-02-26T04:09:55;12.23;;;7.73;;
18046;SDS011;9148;51.454;13.862;2024-02-26T04:12:22;9.20;;;6.63;;
18046;SDS011;9148;51.454;13.862;2024-02-26T04:14:47;7.87;;;7.00;;
18046;SDS011;9148;51.454;13.862;2024-02-26T04:17:13;12.17;;;7.87;;
18046;SDS011;9148;51.454;13.862;2024-02-26T04:19:38;10.33;;;6.73;;
18046;SDS011;9148;51.454;13.862;2024-02-26T04:22:04;7.60;;;5.53;;
18046;SDS011;9148;51.454;13.862;2024-02-26T04:24:30;9.70;;;6.37;;
18046;SDS011;9148;51.454;13.862;2024-02-26T04:26:55;11.30;;;7.37;;
18046;SDS011;9148;51.454;13.862;2024-02-26T04:29:21;10.13;;;6.20;;
18046;SDS011;9148;51.454;13.862;2024-02-26T04:31:47;9.97;;;5.87;;
18046;SDS011;9148;51.454;13.862;2024-02-26T04:34:13;9.60;;;6.77;;
18046;SDS011;9148;51.454;13.862;2024-02-26T04:36:38;5.77;;;5.17;;
18046;SDS011;9148;51.454;13.862;2024-02-26T04:39:04;6.53;;;5.63;;
18046;SDS011;9148;51.454;13.862;2024-02-26T04:41:30;9.63;;;6.10;;
18046;SDS011;9148;51.454;13.862;2024-02-26T04:43:55;8.20;;;6.70;;
18046;SDS011;9148;51.454;13.862;2024-02-26T04:46:21;9.53;;;7.37;;
18046;SDS011;9148;51.454;13.862;2024-02-26T04:48:47;10.37;;;7.40;;
18046;SDS011;9148;51.454;13.862;2024-02-26T04:51:12;11.23;;;7.87;;
18046;SDS011;9148;51.454;13.862;2024-02-26T04:53:38;14.60;;;6.53;;
18046;SDS011;9148;51.454;13.862;2024-02-26T04:56:04;9.07;;;7.63;;
18046;SDS011;9148;51.454;13.862;2024-02-26T04:58:30;9.20;;;7.03;;
18046;SDS011;9148;51.454;13.862;2024-02-26T05:00:55;10.10;;;6.77;;
18046;SDS011;9148;51.454;13.862;2024-02-26T05:03:21;7.80;;;5.83;;
18046;SDS011;9148;51.454;13.862;2024-02-26T05:05:47;9.93;;;7.37;;
18046;SDS011;9148;51.454;13.862;2024-02-26T05:08:12;10.37;;;7.80;;
18046;SDS011;9148;51.454;13.862;2024-02-26T05:10:38;12.47;;;7.57;;
18046;SDS011;9148;51.454;13.862;2024-02-26T05:13:06;10.30;;;7.17;;
18046;SDS011;9148;51.454;13.862;2024-02-26T05:15:32;11.03;;;7.17;;
18046;SDS011;9148;51.454;13.862;2024-02-26T05:17:58;10.67;;;7.07;;
18046;SDS011;9148;51.454;13.862;2024-02-26T05:20:24;13.27;;;8.20;;
18046;SDS011;9148;51.454;13.862;2024-02-26T05:22:50;17.97;;;6.97;;
18046;SDS011;9148;51.454;13.862;2024-02-26T05:25:15;11.47;;;8.30;;
18046;SDS011;9148;51.454;13.862;2024-02-26T05:27:41;13.87;;;9.63;;
18046;SDS011;9148;51.454;13.862;2024-02-26T05:30:08;11.60;;;8.03;;
18046;SDS011;9148;51.454;13.862;2024-02-26T05:32:35;12.40;;;8.27;;
18046;SDS011;9148;51.454;13.862;2024-02-26T05:35:01;10.67;;;7.27;;
18046;SDS011;9148;51.454;13.862;2024-02-26T05:37:28;13.00;;;7.17;;
18046;SDS011;9148;51.454;13.862;2024-02-26T05:39:54;12.73;;;7.10;;
18046;SDS011;9148;51.454;13.862;2024-02-26T05:42:20;7.97;;;7.00;;
18046;SDS011;9148;51.454;13.862;2024-02-26T05:44:47;10.60;;;7.10;;
18046;SDS011;9148;51.454;13.862;2024-02-26T05:47:12;11.13;;;7.73;;
18046;SDS011;9148;51.454;13.862;2024-02-26T05:49:38;12.97;;;10.17;;
18046;SDS011;9148;51.454;13.862;2024-02-26T05:52:05;12.23;;;7.60;;
18046;SDS011;9148;51.454;13.862;2024-02-26T05:54:31;11.23;;;7.30;;
18046;SDS011;9148;51.454;13.862;2024-02-26T05:56:57;14.33;;;9.70;;
18046;SDS011;9148;51.454;13.862;2024-02-26T05:59:23;10.40;;;6.97;;
18046;SDS011;9148;51.454;13.862;2024-02-26T06:01:48;11.13;;;7.37;;
18046;SDS011;9148;51.454;13.862;2024-02-26T06:04:14;12.20;;;8.40;;
18046;SDS011;9148;51.454;13.862;2024-02-26T06:06:40;9.87;;;5.43;;
18046;SDS011;9148;51.454;13.862;2024-02-26T06:09:05;17.87;;;8.60;;
18046;SDS011;9148;51.454;13.862;2024-02-26T06:11:31;9.07;;;6.77;;
18046;SDS011;9148;51.454;13.862;2024-02-26T06:13:57;8.40;;;6.23;;
18046;SDS011;9148;51.454;13.862;2024-02-26T06:16:23;12.83;;;9.03;;
18046;SDS011;9148;51.454;13.862;2024-02-26T06:18:49;9.90;;;6.77;;
18046;SDS011;9148;51.454;13.862;2024-02-26T06:21:14;12.47;;;7.63;;
18046;SDS011;9148;51.454;13.862;2024-02-26T06:23:40;11.13;;;7.57;;
18046;SDS011;9148;51.454;13.862;2024-02-26T06:26:06;10.57;;;7.87;;
18046;SDS011;9148;51.454;13.862;2024-02-26T06:28:31;11.63;;;7.83;;
18046;SDS011;9148;51.454;13.862;2024-02-26T06:30:58;15.20;;;9.57;;
18046;SDS011;9148;51.454;13.862;2024-02-26T06:33:24;11.83;;;8.67;;
18046;SDS011;9148;51.454;13.862;2024-02-26T06:35:50;17.87;;;10.67;;
18046;SDS011;9148;51.454;13.862;2024-02-26T06:38:16;13.57;;;8.83;;
18046;SDS011;9148;51.454;13.862;2024-02-26T06:40:42;15.63;;;11.57;;
18046;SDS011;9148;51.454;13.862;2024-02-26T06:43:09;14.67;;;9.83;;
18046;SDS011;9148;51.454;13.862;2024-02-26T06:45:35;14.43;;;9.23;;
18046;SDS011;9148;51.454;13.862;2024-02-26T06:48:01;11.70;;;8.50;;
18046;SDS011;9148;51.454;13.862;2024-02-26T06:50:27;10.00;;;8.53;;
18046;SDS011;9148;51.454;13.862;2024-02-26T06:52:53;15.00;;;9.97;;
18046;SDS011;9148;51.454;13.862;2024-02-26T06:55:18;17.07;;;10.10;;
18046;SDS011;9148;51.454;13.862;2024-02-26T06:57:44;14.13;;;10.03;;
18046;SDS011;9148;51.454;13.862;2024-02-26T07:00:10;15.53;;;10.27;;
18046;SDS011;9148;51.454;13.862;2024-02-26T07:02:41;10.50;;;7.60;;
18046;SDS011;9148;51.454;13.862;2024-02-26T07:05:10;10.23;;;7.60;;
18046;SDS011;9148;51.454;13.862;2024-02-26T07:07:36;9.67;;;6.77;;
18046;SDS011;9148;51.454;13.862;2024-02-26T07:10:01;9.77;;;7.07;;
18046;SDS011;9148;51.454;13.862;2024-02-26T07:12:33;11.03;;;7.83;;
18046;SDS011;9148;51.454;13.862;2024-02-26T07:14:59;11.10;;;6.17;;
18046;SDS011;9148;51.454;13.862;2024-02-26T07:17:25;11.13;;;6.63;;
18046;SDS011;9148;51.454;13.862;2024-02-26T07:19:51;7.67;;;5.40;;
18046;SDS011;9148;51.454;13.862;2024-02-26T07:22:16;6.63;;;5.90;;
18046;SDS011;9148;51.454;13.862;2024-02-26T07:24:42;12.20;;;6.10;;
18046;SDS011;9148;51.454;13.862;2024-02-26T07:27:08;12.17;;;6.93;;
18046;SDS011;9148;51.454;13.862;2024-02-26T07:29:34;10.87;;;6.27;;
18046;SDS011;9148;51.454;13.862;2024-02-26T07:31:59;8.37;;;5.83;;
18046;SDS011;9148;51.454;13.862;2024-02-26T07:34:25;8.83;;;7.30;;
18046;SDS011;9148;51.454;13.862;2024-02-26T07:36:54;9.30;;;5.60;;
18046;SDS011;9148;51.454;13.862;2024-02-26T07:39:21;9.83;;;7.30;;
18046;SDS011;9148;51.454;13.862;2024-02-26T07:41:47;8.80;;;6.40;;
18046;SDS011;9148;51.454;13.862;2024-02-26T07:44:14;9.37;;;7.33;;
18046;SDS011;9148;51.454;13.862;2024-02-26T07:46:40;13.63;;;6.53;;
18046;SDS011;9148;51.454;13.862;2024-02-26T07:49:06;10.80;;;6.43;;
18046;SDS011;9148;51.454;13.862;2024-02-26T07:51:33;8.73;;;6.10;;
18046;SDS011;9148;51.454;13.862;2024-02-26T07:53:59;9.43;;;6.33;;
18046;SDS011;9148;51.454;13.862;2024-02-26T07:56:25;11.83;;;7.23;;
18046;SDS011;9148;51.454;13.862;2024-02-26T07:58:51;11.53;;;7.00;;
18046;SDS011;9148;51.454;13.862;2024-02-26T08:01:17;10.47;;;7.37;;
18046;SDS011;9148;51.454;13.862;2024-02-26T08:03:42;7.70;;;6.23;;
18046;SDS011;9148;51.454;13.862;2024-02-26T08:06:08;15.07;;;6.83;;
18046;SDS011;9148;51.454;13.862;2024-02-26T08:08:34;10.00;;;5.77;;
18046;SDS011;9148;51.454;13.862;2024-02-26T08:11:00;10.17;;;6.17;;
18046;SDS011;9148;51.454;13.862;2024-02-26T08:13:25;13.37;;;6.83;;
18046;SDS011;9148;51.454;13.862;2024-02-26T08:15:51;10.67;;;6.60;;
18046;SDS011;9148;51.454;13.862;2024-02-26T08:18:17;11.60;;;5.80;;
18046;SDS011;9148;51.454;13.862;2024-02-26T08:20:44;11.13;;;6.57;;
18046;SDS011;9148;51.454;13.862;2024-02-26T08:23:09;11.37;;;6.80;;
18046;SDS011;9148;51.454;13.862;2024-02-26T08:25:35;9.50;;;5.90;;
18046;SDS011;9148;51.454;13.862;2024-02-26T08:28:01;7.47;;;5.30;;
18046;SDS011;9148;51.454;13.862;2024-02-26T08:30:27;7.93;;;5.10;;
18046;SDS011;9148;51.454;13.862;2024-02-26T08:32:52;10.37;;;6.07;;
18046;SDS011;9148;51.454;13.862;2024-02-26T08:35:18;8.73;;;5.40;;
18046;SDS011;9148;51.454;13.862;2024-02-26T08:37:45;15.20;;;8.23;;
18046;SDS011;9148;51.454;13.862;2024-02-26T08:40:11;7.10;;;5.33;;
18046;SDS011;9148;51.454;13.862;2024-02-26T08:42:37;9.07;;;7.13;;
18046;SDS011;9148;51.454;13.862;2024-02-26T08:45:02;9.53;;;5.90;;
18046;SDS011;9148;51.454;13.862;2024-02-26T08:47:28;8.70;;;5.70;;
18046;SDS011;9148;51.454;13.862;2024-02-26T08:49:54;11.30;;;6.40;;
18046;SDS011;9148;51.454;13.862;2024-02-26T08:52:20;9.80;;;5.90;;
18046;SDS011;9148;51.454;13.862;2024-02-26T08:54:47;11.00;;;5.80;;
18046;SDS011;9148;51.454;13.862;2024-02-26T08:57:12;10.90;;;5.73;;
18046;SDS011;9148;51.454;13.862;2024-02-26T08:59:38;9.00;;;5.77;;
18046;SDS011;9148;51.454;13.862;2024-02-26T09:02:04;8.33;;;4.70;;
18046;SDS011;9148;51.454;13.862;2024-02-26T09:04:29;5.73;;;4.67;;
18046;SDS011;9148;51.454;13.862;2024-02-26T09:06:55;7.33;;;5.10;;
18046;SDS011;9148;51.454;13.862;2024-02-26T09:09:27;5.37;;;4.17;;
18046;SDS011;9148;51.454;13.862;2024-02-26T09:11:53;8.37;;;5.47;;
18046;SDS011;9148;51.454;13.862;2024-02-26T09:14:20;6.70;;;5.27;;
18046;SDS011;9148;51.454;13.862;2024-02-26T09:16:46;8.97;;;5.33;;
18046;SDS011;9148;51.454;13.862;2024-02-26T09:19:13;5.20;;;4.10;;
18046;SDS011;9148;51.454;13.862;2024-02-26T09:21:45;5.57;;;4.53;;
18046;SDS011;9148;51.454;13.862;2024-02-26T09:24:11;4.80;;;4.20;;
18046;SDS011;9148;51.454;13.862;2024-02-26T09:26:38;8.27;;;5.27;;
18046;SDS011;9148;51.454;13.862;2024-02-26T09:29:03;6.87;;;4.60;;
18046;SDS011;9148;51.454;13.862;2024-02-26T09:31:29;8.10;;;4.80;;
18046;SDS011;9148;51.454;13.862;2024-02-26T09:33:55;4.83;;;3.73;;
18046;SDS011;9148;51.454;13.862;2024-02-26T09:36:21;9.00;;;4.03;;
18046;SDS011;9148;51.454;13.862;2024-02-26T09:38:47;5.33;;;4.50;;
18046;SDS011;9148;51.454;13.862;2024-02-26T09:41:16;8.17;;;4.77;;
18046;SDS011;9148;51.454;13.862;2024-02-26T09:43:43;7.43;;;4.80;;
18046;SDS011;9148;51.454;13.862;2024-02-26T09:46:11;7.40;;;4.47;;
18046;SDS011;9148;51.454;13.862;2024-02-26T09:48:37;4.57;;;3.60;;
18046;SDS011;9148;51.454;13.862;2024-02-26T09:51:03;6.37;;;4.53;;
18046;SDS011;9148;51.454;13.862;2024-02-26T09:53:29;8.57;;;4.45;;
18046;SDS011;9148;51.454;13.862;2024-02-26T09:55:59;8.38;;;4.35;;
18046;SDS011;9148;51.454;13.862;2024-02-26T09:58:27;6.82;;;4.45;;
18046;SDS011;9148;51.454;13.862;2024-02-26T10:00:56;6.45;;;4.20;;
18046;SDS011;9148;51.454;13.862;2024-02-26T10:03:25;5.20;;;3.85;;
18046;SDS011;9148;51.454;13.862;2024-02-26T10:06:07;8.02;;;4.03;;
18046;SDS011;9148;51.454;13.862;2024-02-26T10:08:34;3.88;;;3.47;;
18046;SDS011;9148;51.454;13.862;2024-02-26T10:11:02;6.28;;;4.40;;
18046;SDS011;9148;51.454;13.862;2024-02-26T10:13:32;5.78;;;3.90;;
18046;SDS011;9148;51.454;13.862;2024-02-26T10:15:57;4.68;;;3.40;;
18046;SDS011;9148;51.454;13.862;2024-02-26T10:18:23;5.57;;;4.05;;
18046;SDS011;9148;51.454;13.862;2024-02-26T10:21:02;10.48;;;4.32;;
18046;SDS011;9148;51.454;13.862;2024-02-26T10:23:28;6.55;;;3.95;;
18046;SDS011;9148;51.454;13.862;2024-02-26T10:25:54;6.70;;;4.13;;
18046;SDS011;9148;51.454;13.862;2024-02-26T10:28:20;6.90;;;4.15;;
18046;SDS011;9148;51.454;13.862;2024-02-26T10:30:46;4.07;;;3.22;;
18046;SDS011;9148;51.454;13.862;2024-02-26T10:33:12;6.35;;;3.28;;
18046;SDS011;9148;51.454;13.862;2024-02-26T10:35:39;5.78;;;3.42;;
18046;SDS011;9148;51.454;13.862;2024-02-26T10:38:10;6.55;;;3.83;;
18046;SDS011;9148;51.454;13.862;2024-02-26T10:40:35;6.50;;;3.88;;
18046;SDS011;9148;51.454;13.862;2024-02-26T10:43:01;6.60;;;3.47;;
18046;SDS011;9148;51.454;13.862;2024-02-26T10:45:27;6.50;;;3.60;;
18046;SDS011;9148;51.454;13.862;2024-02-26T10:47:53;5.32;;;3.55;;
18046;SDS011;9148;51.454;13.862;2024-02-26T10:50:19;7.05;;;3.80;;
18046;SDS011;9148;51.454;13.862;2024-02-26T10:52:44;5.93;;;3.22;;
18046;SDS011;9148;51.454;13.862;2024-02-26T10:55:13;5.60;;;3.42;;
18046;SDS011;9148;51.454;13.862;2024-02-26T10:57:44;3.95;;;2.80;;
18046;SDS011;9148;51.454;13.862;2024-02-26T11:00:13;4.70;;;3.50;;
18046;SDS011;9148;51.454;13.862;2024-02-26T11:02:40;4.35;;;3.30;;
18046;SDS011;9148;51.454;13.862;2024-02-26T11:05:07;5.28;;;3.20;;
18046;SDS011;9148;51.454;13.862;2024-02-26T11:07:34;3.83;;;2.97;;
18046;SDS011;9148;51.454;13.862;2024-02-26T11:10:02;6.90;;;3.00;;
18046;SDS011;9148;51.454;13.862;2024-02-26T11:12:30;6.63;;;3.45;;
18046;SDS011;9148;51.454;13.862;2024-02-26T11:15:00;3.53;;;2.58;;
18046;SDS011;9148;51.454;13.862;2024-02-26T11:17:27;8.10;;;3.95;;
18046;SDS011;9148;51.454;13.862;2024-02-26T11:19:57;3.90;;;3.10;;
18046;SDS011;9148;51.454;13.862;2024-02-26T11:22:25;4.45;;;2.85;;
18046;SDS011;9148;51.454;13.862;2024-02-26T11:24:54;4.18;;;2.55;;
18046;SDS011;9148;51.454;13.862;2024-02-26T11:27:33;7.40;;;3.05;;
18046;SDS011;9148;51.454;13.862;2024-02-26T11:30:25;4.90;;;3.20;;
18046;SDS011;9148;51.454;13.862;2024-02-26T11:32:52;3.13;;;2.58;;
18046;SDS011;9148;51.454;13.862;2024-02-26T11:35:18;3.20;;;2.20;;
18046;SDS011;9148;51.454;13.862;2024-02-26T11:37:51;5.82;;;3.15;;
18046;SDS011;9148;51.454;13.862;2024-02-26T11:40:24;5.95;;;3.47;;
18046;SDS011;9148;51.454;13.862;2024-02-26T11:42:51;5.28;;;3.03;;
18046;SDS011;9148;51.454;13.862;2024-02-26T11:48:02;4.70;;;2.45;;
18046;SDS011;9148;51.454;13.862;2024-02-26T11:50:35;5.28;;;2.95;;
18046;SDS011;9148;51.454;13.862;2024-02-26T11:56:00;3.30;;;3.00;;
18046;SDS011;9148;51.454;13.862;2024-02-26T11:58:59;4.70;;;3.20;;
18046;SDS011;9148;51.454;13.862;2024-02-26T12:01:41;5.75;;;3.35;;
18046;SDS011;9148;51.454;13.862;2024-02-26T12:04:18;8.10;;;3.22;;
18046;SDS011;9148;51.454;13.862;2024-02-26T12:06:57;3.88;;;2.83;;
18046;SDS011;9148;51.454;13.862;2024-02-26T12:14:33;5.07;;;3.20;;
18046;SDS011;9148;51.454;13.862;2024-02-26T12:17:03;7.53;;;3.25;;
18046;SDS011;9148;51.454;13.862;2024-02-26T12:19:32;4.90;;;2.80;;
18046;SDS011;9148;51.454;13.862;2024-02-26T12:22:00;6.45;;;2.70;;
18046;SDS011;9148;51.454;13.862;2024-02-26T12:24:26;6.38;;;2.88;;
18046;SDS011;9148;51.454;13.862;2024-02-26T12:26:51;3.83;;;2.42;;
18046;SDS011;9148;51.454;13.862;2024-02-26T12:29:17;7.20;;;2.35;;
18046;SDS011;9148;51.454;13.862;2024-02-26T12:31:43;2.75;;;2.45;;
18046;SDS011;9148;51.454;13.862;2024-02-26T12:34:09;3.08;;;2.13;;
18046;SDS011;9148;51.454;13.862;2024-02-26T12:36:35;3.33;;;2.72;;
18046;SDS011;9148;51.454;13.862;2024-02-26T12:39:04;3.05;;;2.55;;
18046;SDS011;9148;51.454;13.862;2024-02-26T12:41:34;5.03;;;2.70;;
18046;SDS011;9148;51.454;13.862;2024-02-26T12:44:00;3.58;;;2.50;;
18046;SDS011;9148;51.454;13.862;2024-02-26T12:46:26;5.47;;;3.15;;
18046;SDS011;9148;51.454;13.862;2024-02-26T12:48:54;3.35;;;2.10;;
18046;SDS011;9148;51.454;13.862;2024-02-26T12:51:23;4.85;;;2.53;;
18046;SDS011;9148;51.454;13.862;2024-02-26T12:53:50;4.35;;;2.22;;
18046;SDS011;9148;51.454;13.862;2024-02-26T12:56:17;4.18;;;1.90;;
18046;SDS011;9148;51.454;13.862;2024-02-26T12:58:43;4.28;;;2.80;;
18046;SDS011;9148;51.454;13.862;2024-02-26T13:01:14;4.60;;;2.92;;
18046;SDS011;9148;51.454;13.862;2024-02-26T13:03:41;4.57;;;2.40;;
18046;SDS011;9148;51.454;13.862;2024-02-26T13:06:08;3.13;;;2.20;;
18046;SDS011;9148;51.454;13.862;2024-02-26T13:08:34;3.97;;;2.60;;
18046;SDS011;9148;51.454;13.862;2024-02-26T13:11:00;3.33;;;2.50;;
18046;SDS011;9148;51.454;13.862;2024-02-26T13:13:26;4.43;;;2.55;;
18046;SDS011;9148;51.454;13.862;2024-02-26T13:16:04;5.22;;;2.80;;
18046;SDS011;9148;51.454;13.862;2024-02-26T13:18:33;5.65;;;3.10;;
18046;SDS011;9148;51.454;13.862;2024-02-26T13:21:32;4.05;;;2.70;;
18046;SDS011;9148;51.454;13.862;2024-02-26T13:23:52;6.55;;;2.60;;
18046;SDS011;9148;51.454;13.862;2024-02-26T13:26:21;10.38;;;2.75;;
18046;SDS011;9148;51.454;13.862;2024-02-26T13:28:58;6.53;;;2.40;;
18046;SDS011;9148;51.454;13.862;2024-02-26T13:31:31;6.05;;;2.90;;
18046;SDS011;9148;51.454;13.862;2024-02-26T13:33:57;6.00;;;2.83;;
18046;SDS011;9148;51.454;13.862;2024-02-26T13:36:23;4.65;;;3.33;;
18046;SDS011;9148;51.454;13.862;2024-02-26T13:38:54;3.78;;;2.53;;
18046;SDS011;9148;51.454;13.862;2024-02-26T13:41:21;2.80;;;2.35;;
18046;SDS011;9148;51.454;13.862;2024-02-26T13:43:47;3.17;;;2.78;;
18046;SDS011;9148;51.454;13.862;2024-02-26T13:46:13;6.63;;;2.95;;
18046;SDS011;9148;51.454;13.862;2024-02-26T13:48:40;7.18;;;3.17;;
18046;SDS011;9148;51.454;13.862;2024-02-26T13:51:07;4.38;;;2.85;;
18046;SDS011;9148;51.454;13.862;2024-02-26T13:53:32;4.40;;;2.65;;
18046;SDS011;9148;51.454;13.862;2024-02-26T13:55:58;4.68;;;3.05;;
18046;SDS011;9148;51.454;13.862;2024-02-26T13:58:26;5.88;;;2.95;;
18046;SDS011;9148;51.454;13.862;2024-02-26T14:00:52;5.30;;;3.08;;
18046;SDS011;9148;51.454;13.862;2024-02-26T14:03:21;14.27;;;4.05;;
18046;SDS011;9148;51.454;13.862;2024-02-26T14:05:47;4.88;;;3.05;;
18046;SDS011;9148;51.454;13.862;2024-02-26T14:08:13;4.82;;;3.67;;
18046;SDS011;9148;51.454;13.862;2024-02-26T14:10:39;6.55;;;4.78;;
18046;SDS011;9148;51.454;13.862;2024-02-26T14:13:05;4.38;;;3.45;;
18046;SDS011;9148;51.454;13.862;2024-02-26T14:15:31;6.68;;;3.92;;
18046;SDS011;9148;51.454;13.862;2024-02-26T14:18:00;5.28;;;3.58;;
18046;SDS011;9148;51.454;13.862;2024-02-26T14:20:28;4.90;;;3.45;;
18046;SDS011;9148;51.454;13.862;2024-02-26T14:22:53;8.13;;;4.57;;
18046;SDS011;9148;51.454;13.862;2024-02-26T14:25:19;8.47;;;5.43;;
18046;SDS011;9148;51.454;13.862;2024-02-26T14:27:46;9.45;;;5.03;;
18046;SDS011;9148;51.454;13.862;2024-02-26T14:30:13;7.53;;;4.23;;
18046;SDS011;9148;51.454;13.862;2024-02-26T14:32:39;5.90;;;4.30;;
18046;SDS011;9148;51.454;13.862;2024-02-26T14:35:06;6.77;;;4.97;;
18046;SDS011;9148;51.454;13.862;2024-02-26T14:37:33;5.80;;;4.57;;
18046;SDS011;9148;51.454;13.862;2024-02-26T14:40:00;7.23;;;4.57;;
18046;SDS011;9148;51.454;13.862;2024-02-26T14:42:27;9.10;;;5.13;;
18046;SDS011;9148;51.454;13.862;2024-02-26T14:44:54;7.47;;;4.40;;
18046;SDS011;9148;51.454;13.862;2024-02-26T14:47:20;9.57;;;4.97;;
18046;SDS011;9148;51.454;13.862;2024-02-26T14:49:45;8.50;;;5.20;;
18046;SDS011;9148;51.454;13.862;2024-02-26T14:52:13;8.37;;;5.50;;